sensor_id;sensor_type;location;lat;lon;timestamp;temperature;humidity
33715;DHT22;20043;50.998;4.754;2024-03-23T00:52:46;9.70;99.90
33715;DHT22;20043;50.998;4.754;2024-03-23T00:55:11;9.70;99.90
33715;DHT22;20043;50.998;4.754;2024-03-23T00:57:37;9.70;99.90
33715;DHT22;20043;50.998;4.754;2024-03-23T01:00:03;9.80;99.90
33715;DHT22;20043;50.998;4.754;2024-03-23T01:02:31;9.90;99.90
33715;DHT22;20043;50.998;4.754;2024-03-23T01:04:56;10.00;99.90
33715;DHT22;20043;50.998;4.754;2024-03-23T01:07:22;10.10;99.90
33715;DHT22;20043;50.998;4.754;2024-03-23T01:09:47;10.00;99.90
33715;DHT22;20043;50.998;4.754;2024-03-23T01:12:13;10.00;99.90
33715;DHT22;20043;50.998;4.754;2024-03-23T01:14:38;10.00;99.90
33715;DHT22;20043;50.998;4.754;2024-03-23T01:17:04;9.90;99.90
33715;DHT22;20043;50.998;4.754;2024-03-23T01:19:29;9.90;99.90
33715;DHT22;20043;50.998;4.754;2024-03-23T01:21:55;9.90;99.90
33715;DHT22;20043;50.998;4.754;2024-03-23T01:24:21;9.60;99.90
33715;DHT22;20043;50.998;4.754;2024-03-23T01:26:46;9.40;99.90
33715;DHT22;20043;50.998;4.754;2024-03-23T01:29:12;9.30;99.90
33715;DHT22;20043;50.998;4.754;2024-03-23T01:31:37;9.00;99.90
33715;DHT22;20043;50.998;4.754;2024-03-23T01:34:03;9.00;99.90
33715;DHT22;20043;50.998;4.754;2024-03-23T01:36:28;9.00;99.90
33715;DHT22;20043;50.998;4.754;2024-03-23T01:38:54;8.90;99.90
33715;DHT22;20043;50.998;4.754;2024-03-23T01:41:19;9.00;99.90
33715;DHT22;20043;50.998;4.754;2024-03-23T01:43:45;9.10;99.90
33715;DHT22;20043;50.998;4.754;2024-03-23T01:46:11;9.40;99.90
33715;DHT22;20043;50.998;4.754;2024-03-23T01:48:36;9.40;99.90
33715;DHT22;20043;50.998;4.754;2024-03-23T01:51:08;9.40;99.90
33715;DHT22;20043;50.998;4.754;2024-03-23T01:53:34;9.50;99.90
33715;DHT22;20043;50.998;4.754;2024-03-23T01:55:59;9.70;99.90
33715;DHT22;20043;50.998;4.754;2024-03-23T01:58:25;9.70;99.90
33715;DHT22;20043;50.998;4.754;2024-03-23T02:00:50;9.60;99.90
33715;DHT22;20043;50.998;4.754;2024-03-23T02:03:26;9.50;99.90
33715;DHT22;20043;50.998;4.754;2024-03-23T02:05:52;9.40;99.90
33715;DHT22;20043;50.998;4.754;2024-03-23T02:08:18;9.40;99.90
33715;DHT22;20043;50.998;4.754;2024-03-23T02:10:45;9.50;99.90
33715;DHT22;20043;50.998;4.754;2024-03-23T02:13:19;9.40;99.90
33715;DHT22;20043;50.998;4.754;2024-03-23T02:15:45;9.40;99.90
33715;DHT22;20043;50.998;4.754;2024-03-23T02:18:10;9.40;99.90
33715;DHT22;20043;50.998;4.754;2024-03-23T02:20:36;9.40;99.90
33715;DHT22;20043;50.998;4.754;2024-03-23T02:23:02;9.20;99.90
33715;DHT22;20043;50.998;4.754;2024-03-23T02:25:28;9.20;99.90
33715;DHT22;20043;50.998;4.754;2024-03-23T02:27:53;9.30;99.90
33715;DHT22;20043;50.998;4.754;2024-03-23T02:30:24;9.30;99.90
33715;DHT22;20043;50.998;4.754;2024-03-23T02:32:49;9.30;99.90
33715;DHT22;20043;50.998;4.754;2024-03-23T02:35:15;9.40;99.90
33715;DHT22;20043;50.998;4.754;2024-03-23T02:37:40;9.50;99.90
33715;DHT22;20043;50.998;4.754;2024-03-23T02:40:06;9.60;99.90
33715;DHT22;20043;50.998;4.754;2024-03-23T02:42:31;9.60;99.90
33715;DHT22;20043;50.998;4.754;2024-03-23T02:44:57;9.60;99.90
33715;DHT22;20043;50.998;4.754;2024-03-23T02:47:23;9.60;99.90
33715;DHT22;20043;50.998;4.754;2024-03-23T02:49:48;9.40;99.90
33715;DHT22;20043;50.998;4.754;2024-03-23T02:52:14;9.30;99.90
33715;DHT22;20043;50.998;4.754;2024-03-23T02:54:39;9.30;99.90
33715;DHT22;20043;50.998;4.754;2024-03-23T02:57:07;9.30;99.90
33715;DHT22;20043;50.998;4.754;2024-03-23T02:59:33;9.30;99.90
33715;DHT22;20043;50.998;4.754;2024-03-23T03:01:58;9.40;99.90
33715;DHT22;20043;50.998;4.754;2024-03-23T03:04:25;9.40;99.90
33715;DHT22;20043;50.998;4.754;2024-03-23T03:06:50;9.30;99.90
33715;DHT22;20043;50.998;4.754;2024-03-23T03:09:16;9.30;99.90
33715;DHT22;20043;50.998;4.754;2024-03-23T03:11:41;9.30;99.90
33715;DHT22;20043;50.998;4.754;2024-03-23T03:14:07;9.30;99.90
33715;DHT22;20043;50.998;4.754;2024-03-23T03:16:33;9.30;99.90
33715;DHT22;20043;50.998;4.754;2024-03-23T03:18:58;9.30;99.90
33715;DHT22;20043;50.998;4.754;2024-03-23T03:21:24;9.40;99.90
33715;DHT22;20043;50.998;4.754;2024-03-23T03:23:49;9.40;99.90
33715;DHT22;20043;50.998;4.754;2024-03-23T03:26:18;9.40;99.90
33715;DHT22;20043;50.998;4.754;2024-03-23T03:28:43;9.30;99.90
33715;DHT22;20043;50.998;4.754;2024-03-23T03:31:17;9.20;99.90
33715;DHT22;20043;50.998;4.754;2024-03-23T03:33:43;9.20;99.90
33715;DHT22;20043;50.998;4.754;2024-03-23T03:36:09;9.30;99.90
33715;DHT22;20043;50.998;4.754;2024-03-23T03:38:35;9.30;99.90
33715;DHT22;20043;50.998;4.754;2024-03-23T03:41:01;9.30;99.90
33715;DHT22;20043;50.998;4.754;2024-03-23T03:43:26;9.30;99.90
33715;DHT22;20043;50.998;4.754;2024-03-23T03:45:56;9.30;99.90
33715;DHT22;20043;50.998;4.754;2024-03-23T03:48:21;9.20;99.90
33715;DHT22;20043;50.998;4.754;2024-03-23T03:50:47;9.10;99.90
33715;DHT22;20043;50.998;4.754;2024-03-23T03:53:12;9.20;99.90
33715;DHT22;20043;50.998;4.754;2024-03-23T03:55:38;9.10;99.90
33715;DHT22;20043;50.998;4.754;2024-03-23T03:58:03;9.10;99.90
33715;DHT22;20043;50.998;4.754;2024-03-23T04:00:30;9.20;99.90
33715;DHT22;20043;50.998;4.754;2024-03-23T04:02:55;9.10;99.90
33715;DHT22;20043;50.998;4.754;2024-03-23T04:05:21;9.00;99.90
33715;DHT22;20043;50.998;4.754;2024-03-23T04:07:47;9.00;99.90
33715;DHT22;20043;50.998;4.754;2024-03-23T04:10:13;9.00;99.90
33715;DHT22;20043;50.998;4.754;2024-03-23T04:12:38;9.10;99.90
33715;DHT22;20043;50.998;4.754;2024-03-23T04:15:04;9.00;99.90
33715;DHT22;20043;50.998;4.754;2024-03-23T04:17:30;8.90;99.90
33715;DHT22;20043;50.998;4.754;2024-03-23T04:19:58;8.90;99.90
33715;DHT22;20043;50.998;4.754;2024-03-23T04:22:23;8.90;99.90
33715;DHT22;20043;50.998;4.754;2024-03-23T04:24:54;9.00;99.90
33715;DHT22;20043;50.998;4.754;2024-03-23T04:27:26;9.10;99.90
33715;DHT22;20043;50.998;4.754;2024-03-23T04:29:52;9.10;99.90
33715;DHT22;20043;50.998;4.754;2024-03-23T04:32:20;9.10;99.90
33715;DHT22;20043;50.998;4.754;2024-03-23T04:34:46;9.10;99.90
33715;DHT22;20043;50.998;4.754;2024-03-23T04:37:11;9.10;99.90
33715;DHT22;20043;50.998;4.754;2024-03-23T04:39:37;9.10;99.90
33715;DHT22;20043;50.998;4.754;2024-03-23T04:42:03;9.10;99.90
33715;DHT22;20043;50.998;4.754;2024-03-23T04:44:28;9.10;99.90
33715;DHT22;20043;50.998;4.754;2024-03-23T04:46:54;9.20;99.90
33715;DHT22;20043;50.998;4.754;2024-03-23T04:49:20;9.20;99.90
33715;DHT22;20043;50.998;4.754;2024-03-23T04:51:46;9.10;99.90
33715;DHT22;20043;50.998;4.754;2024-03-23T04:54:12;9.00;99.90
33715;DHT22;20043;50.998;4.754;2024-03-23T04:56:37;9.00;99.90
33715;DHT22;20043;50.998;4.754;2024-03-23T04:59:03;8.90;99.90
33715;DHT22;20043;50.998;4.754;2024-03-23T05:01:30;8.90;99.90
33715;DHT22;20043;50.998;4.754;2024-03-23T05:03:56;8.80;99.90
33715;DHT22;20043;50.998;4.754;2024-03-23T05:06:22;8.70;99.90
33715;DHT22;20043;50.998;4.754;2024-03-23T05:08:48;8.70;99.90
33715;DHT22;20043;50.998;4.754;2024-03-23T05:11:13;8.70;99.90
33715;DHT22;20043;50.998;4.754;2024-03-23T05:13:39;8.60;99.90
33715;DHT22;20043;50.998;4.754;2024-03-23T05:16:05;8.50;99.90
33715;DHT22;20043;50.998;4.754;2024-03-23T05:18:30;8.50;99.90
33715;DHT22;20043;50.998;4.754;2024-03-23T05:20:56;8.50;99.90
33715;DHT22;20043;50.998;4.754;2024-03-23T05:23:23;8.50;99.90
33715;DHT22;20043;50.998;4.754;2024-03-23T05:25:48;8.40;99.90
33715;DHT22;20043;50.998;4.754;2024-03-23T05:28:14;8.50;99.90
33715;DHT22;20043;50.998;4.754;2024-03-23T05:30:39;8.50;99.90
33715;DHT22;20043;50.998;4.754;2024-03-23T05:33:05;8.50;99.90
33715;DHT22;20043;50.998;4.754;2024-03-23T05:35:31;8.40;99.90
33715;DHT22;20043;50.998;4.754;2024-03-23T05:37:57;8.30;99.90
33715;DHT22;20043;50.998;4.754;2024-03-23T05:40:24;8.20;99.90
33715;DHT22;20043;50.998;4.754;2024-03-23T05:42:50;8.20;99.90
33715;DHT22;20043;50.998;4.754;2024-03-23T05:45:18;8.20;99.90
33715;DHT22;20043;50.998;4.754;2024-03-23T05:47:44;8.20;99.90
33715;DHT22;20043;50.998;4.754;2024-03-23T05:50:10;8.20;99.90
33715;DHT22;20043;50.998;4.754;2024-03-23T05:52:38;8.30;99.90
33715;DHT22;20043;50.998;4.754;2024-03-23T05:55:04;8.30;99.90
33715;DHT22;20043;50.998;4.754;2024-03-23T05:57:29;8.30;99.90
33715;DHT22;20043;50.998;4.754;2024-03-23T05:59:55;8.20;99.90
33715;DHT22;20043;50.998;4.754;2024-03-23T06:02:22;8.20;99.90
33715;DHT22;20043;50.998;4.754;2024-03-23T06:04:47;8.20;99.90
33715;DHT22;20043;50.998;4.754;2024-03-23T06:07:13;8.30;99.90
33715;DHT22;20043;50.998;4.754;2024-03-23T06:09:39;8.20;99.90
33715;DHT22;20043;50.998;4.754;2024-03-23T06:12:05;8.20;99.90
33715;DHT22;20043;50.998;4.754;2024-03-23T06:14:31;8.30;99.90
33715;DHT22;20043;50.998;4.754;2024-03-23T06:16:56;8.30;99.90
33715;DHT22;20043;50.998;4.754;2024-03-23T06:19:22;8.30;99.90
33715;DHT22;20043;50.998;4.754;2024-03-23T06:21:47;8.40;99.90
33715;DHT22;20043;50.998;4.754;2024-03-23T06:24:13;8.40;99.90
33715;DHT22;20043;50.998;4.754;2024-03-23T06:26:38;8.40;99.90
33715;DHT22;20043;50.998;4.754;2024-03-23T06:29:04;8.40;99.90
33715;DHT22;20043;50.998;4.754;2024-03-23T06:31:30;8.50;99.90
33715;DHT22;20043;50.998;4.754;2024-03-23T06:33:56;8.50;99.90
33715;DHT22;20043;50.998;4.754;2024-03-23T06:36:21;8.50;99.90
33715;DHT22;20043;50.998;4.754;2024-03-23T06:38:47;8.50;99.90
33715;DHT22;20043;50.998;4.754;2024-03-23T06:41:12;8.50;99.90
33715;DHT22;20043;50.998;4.754;2024-03-23T06:43:38;8.50;99.90
33715;DHT22;20043;50.998;4.754;2024-03-23T06:46:03;8.50;99.90
33715;DHT22;20043;50.998;4.754;2024-03-23T06:48:32;8.50;99.90
33715;DHT22;20043;50.998;4.754;2024-03-23T06:50:57;8.40;99.90
33715;DHT22;20043;50.998;4.754;2024-03-23T06:53:23;8.40;99.90
33715;DHT22;20043;50.998;4.754;2024-03-23T06:55:52;8.40;99.90
33715;DHT22;20043;50.998;4.754;2024-03-23T06:58:21;8.40;99.90
33715;DHT22;20043;50.998;4.754;2024-03-23T07:00:47;8.40;99.90
33715;DHT22;20043;50.998;4.754;2024-03-23T07:03:13;8.60;99.90
33715;DHT22;20043;50.998;4.754;2024-03-23T07:05:38;8.60;99.90
33715;DHT22;20043;50.998;4.754;2024-03-23T07:08:04;8.70;99.90
33715;DHT22;20043;50.998;4.754;2024-03-23T07:10:30;8.70;99.90
33715;DHT22;20043;50.998;4.754;2024-03-23T07:12:55;8.80;99.90
33715;DHT22;20043;50.998;4.754;2024-03-23T07:15:21;8.90;99.90
33715;DHT22;20043;50.998;4.754;2024-03-23T07:17:47;9.00;99.90
33715;DHT22;20043;50.998;4.754;2024-03-23T07:20:12;8.90;99.90
33715;DHT22;20043;50.998;4.754;2024-03-23T07:22:38;8.90;99.90
33715;DHT22;20043;50.998;4.754;2024-03-23T07:25:04;8.80;99.90
33715;DHT22;20043;50.998;4.754;2024-03-23T07:27:30;8.80;99.90
33715;DHT22;20043;50.998;4.754;2024-03-23T07:29:55;8.80;99.90
33715;DHT22;20043;50.998;4.754;2024-03-23T07:32:21;8.70;99.90
33715;DHT22;20043;50.998;4.754;2024-03-23T07:34:46;8.60;99.90
33715;DHT22;20043;50.998;4.754;2024-03-23T07:37:12;8.50;99.90
33715;DHT22;20043;50.998;4.754;2024-03-23T07:39:39;8.50;99.90
33715;DHT22;20043;50.998;4.754;2024-03-23T07:42:04;8.50;99.90
33715;DHT22;20043;50.998;4.754;2024-03-23T07:44:30;8.70;99.90
33715;DHT22;20043;50.998;4.754;2024-03-23T07:46:56;8.90;99.90
33715;DHT22;20043;50.998;4.754;2024-03-23T07:49:21;9.00;99.90
33715;DHT22;20043;50.998;4.754;2024-03-23T07:51:47;9.00;99.90
33715;DHT22;20043;50.998;4.754;2024-03-23T07:54:12;9.00;99.90
33715;DHT22;20043;50.998;4.754;2024-03-23T07:56:38;9.10;99.90
33715;DHT22;20043;50.998;4.754;2024-03-23T07:59:03;9.10;99.90
33715;DHT22;20043;50.998;4.754;2024-03-23T08:01:29;9.20;99.90
33715;DHT22;20043;50.998;4.754;2024-03-23T08:03:55;9.30;99.90
33715;DHT22;20043;50.998;4.754;2024-03-23T08:06:21;9.20;99.90
33715;DHT22;20043;50.998;4.754;2024-03-23T08:08:48;9.20;99.90
33715;DHT22;20043;50.998;4.754;2024-03-23T08:11:14;9.30;99.90
33715;DHT22;20043;50.998;4.754;2024-03-23T08:13:40;9.30;99.90
33715;DHT22;20043;50.998;4.754;2024-03-23T08:16:06;9.20;99.90
33715;DHT22;20043;50.998;4.754;2024-03-23T08:18:32;9.30;99.90
33715;DHT22;20043;50.998;4.754;2024-03-23T08:21:01;9.30;99.90
33715;DHT22;20043;50.998;4.754;2024-03-23T08:23:28;9.40;99.90
33715;DHT22;20043;50.998;4.754;2024-03-23T08:26:03;9.40;99.90
33715;DHT22;20043;50.998;4.754;2024-03-23T08:28:29;9.40;99.90
33715;DHT22;20043;50.998;4.754;2024-03-23T08:30:55;9.40;99.90
33715;DHT22;20043;50.998;4.754;2024-03-23T08:33:21;9.40;99.90
33715;DHT22;20043;50.998;4.754;2024-03-23T08:35:56;9.40;99.90
33715;DHT22;20043;50.998;4.754;2024-03-23T08:38:22;9.50;99.90
33715;DHT22;20043;50.998;4.754;2024-03-23T08:40:47;9.60;99.90
33715;DHT22;20043;50.998;4.754;2024-03-23T08:43:13;9.70;99.90
33715;DHT22;20043;50.998;4.754;2024-03-23T08:45:38;9.70;99.90
33715;DHT22;20043;50.998;4.754;2024-03-23T08:48:04;9.70;99.90
33715;DHT22;20043;50.998;4.754;2024-03-23T08:50:30;9.60;99.90
33715;DHT22;20043;50.998;4.754;2024-03-23T08:52:55;9.50;99.90
33715;DHT22;20043;50.998;4.754;2024-03-23T08:55:21;9.50;99.90
33715;DHT22;20043;50.998;4.754;2024-03-23T08:57:46;9.60;99.90
33715;DHT22;20043;50.998;4.754;2024-03-23T09:00:12;9.60;99.90
33715;DHT22;20043;50.998;4.754;2024-03-23T09:02:37;9.70;99.90
33715;DHT22;20043;50.998;4.754;2024-03-23T09:05:03;9.50;99.90
33715;DHT22;20043;50.998;4.754;2024-03-23T09:07:32;9.50;99.90
33715;DHT22;20043;50.998;4.754;2024-03-23T09:09:57;9.60;99.90
33715;DHT22;20043;50.998;4.754;2024-03-23T09:12:23;9.80;99.90
33715;DHT22;20043;50.998;4.754;2024-03-23T09:14:49;9.90;99.90
33715;DHT22;20043;50.998;4.754;2024-03-23T09:17:15;9.90;99.90
33715;DHT22;20043;50.998;4.754;2024-03-23T09:19:40;10.00;99.90
33715;DHT22;20043;50.998;4.754;2024-03-23T09:22:06;10.10;99.90
33715;DHT22;20043;50.998;4.754;2024-03-23T09:24:31;10.20;99.90
33715;DHT22;20043;50.998;4.754;2024-03-23T09:26:57;10.10;99.90
33715;DHT22;20043;50.998;4.754;2024-03-23T09:29:23;10.10;99.90
33715;DHT22;20043;50.998;4.754;2024-03-23T09:31:48;10.10;99.90
33715;DHT22;20043;50.998;4.754;2024-03-23T09:34:14;10.00;99.90
33715;DHT22;20043;50.998;4.754;2024-03-23T09:36:40;10.10;99.90
33715;DHT22;20043;50.998;4.754;2024-03-23T09:39:06;10.10;99.90
33715;DHT22;20043;50.998;4.754;2024-03-23T09:41:33;10.20;99.90
33715;DHT22;20043;50.998;4.754;2024-03-23T09:43:58;10.50;99.90
33715;DHT22;20043;50.998;4.754;2024-03-23T09:46:24;10.60;99.90
33715;DHT22;20043;50.998;4.754;2024-03-23T09:48:49;10.60;99.90
33715;DHT22;20043;50.998;4.754;2024-03-23T09:51:15;10.50;99.90
33715;DHT22;20043;50.998;4.754;2024-03-23T09:53:40;10.40;99.90
33715;DHT22;20043;50.998;4.754;2024-03-23T09:56:07;10.30;99.90
33715;DHT22;20043;50.998;4.754;2024-03-23T09:58:32;10.40;99.90
33715;DHT22;20043;50.998;4.754;2024-03-23T10:00:58;10.40;99.90
33715;DHT22;20043;50.998;4.754;2024-03-23T10:03:24;10.50;99.90
33715;DHT22;20043;50.998;4.754;2024-03-23T10:05:59;10.40;99.90
33715;DHT22;20043;50.998;4.754;2024-03-23T10:08:25;10.10;99.90
33715;DHT22;20043;50.998;4.754;2024-03-23T10:10:51;9.80;99.90
33715;DHT22;20043;50.998;4.754;2024-03-23T10:13:28;9.60;99.90
33715;DHT22;20043;50.998;4.754;2024-03-23T10:15:57;9.50;99.90
33715;DHT22;20043;50.998;4.754;2024-03-23T10:18:23;9.60;99.90
33715;DHT22;20043;50.998;4.754;2024-03-23T10:23:30;9.40;99.90
33715;DHT22;20043;50.998;4.754;2024-03-23T10:26:10;9.50;99.90
33715;DHT22;20043;50.998;4.754;2024-03-23T10:28:37;9.60;99.90
33715;DHT22;20043;50.998;4.754;2024-03-23T10:31:15;9.80;99.90
33715;DHT22;20043;50.998;4.754;2024-03-23T10:33:44;10.00;99.90
33715;DHT22;20043;50.998;4.754;2024-03-23T10:36:09;10.20;99.90
33715;DHT22;20043;50.998;4.754;2024-03-23T10:38:35;10.40;99.90
33715;DHT22;20043;50.998;4.754;2024-03-23T10:41:01;10.60;99.90
33715;DHT22;20043;50.998;4.754;2024-03-23T10:43:27;10.70;99.90
33715;DHT22;20043;50.998;4.754;2024-03-23T10:45:52;10.80;99.90
33715;DHT22;20043;50.998;4.754;2024-03-23T10:48:18;10.70;99.90
33715;DHT22;20043;50.998;4.754;2024-03-23T10:50:43;10.70;99.90
33715;DHT22;20043;50.998;4.754;2024-03-23T10:53:09;10.80;99.90
33715;DHT22;20043;50.998;4.754;2024-03-23T10:55:36;10.80;99.90
33715;DHT22;20043;50.998;4.754;2024-03-23T10:58:01;10.70;99.90
33715;DHT22;20043;50.998;4.754;2024-03-23T11:00:27;10.80;99.90
33715;DHT22;20043;50.998;4.754;2024-03-23T11:02:53;10.90;99.90
33715;DHT22;20043;50.998;4.754;2024-03-23T11:07:50;10.70;99.90
33715;DHT22;20043;50.998;4.754;2024-03-23T11:10:31;10.60;99.90
33715;DHT22;20043;50.998;4.754;2024-03-23T11:12:58;10.30;99.90
33715;DHT22;20043;50.998;4.754;2024-03-23T11:15:24;9.80;99.90
33715;DHT22;20043;50.998;4.754;2024-03-23T11:18:05;9.50;99.90
33715;DHT22;20043;50.998;4.754;2024-03-23T11:20:33;9.30;99.90
33715;DHT22;20043;50.998;4.754;2024-03-23T11:22:59;8.80;99.90
33715;DHT22;20043;50.998;4.754;2024-03-23T11:25:25;8.60;99.90
33715;DHT22;20043;50.998;4.754;2024-03-23T11:27:54;8.60;99.90
33715;DHT22;20043;50.998;4.754;2024-03-23T11:30:21;8.50;99.90
33715;DHT22;20043;50.998;4.754;2024-03-23T11:32:51;8.50;99.90
33715;DHT22;20043;50.998;4.754;2024-03-23T11:40:53;8.80;99.90
33715;DHT22;20043;50.998;4.754;2024-03-23T11:43:19;9.00;99.90
33715;DHT22;20043;50.998;4.754;2024-03-23T11:45:48;9.30;99.90
33715;DHT22;20043;50.998;4.754;2024-03-23T11:48:20;9.70;99.90
33715;DHT22;20043;50.998;4.754;2024-03-23T11:50:47;10.20;99.90
33715;DHT22;20043;50.998;4.754;2024-03-23T11:53:17;10.30;99.90
33715;DHT22;20043;50.998;4.754;2024-03-23T11:58:14;9.80;99.90
33715;DHT22;20043;50.998;4.754;2024-03-23T12:00:40;9.80;99.90
33715;DHT22;20043;50.998;4.754;2024-03-23T12:03:05;9.80;99.90
33715;DHT22;20043;50.998;4.754;2024-03-23T12:05:32;10.00;99.90
33715;DHT22;20043;50.998;4.754;2024-03-23T12:10:47;10.50;99.90
33715;DHT22;20043;50.998;4.754;2024-03-23T12:13:14;10.70;99.90
33715;DHT22;20043;50.998;4.754;2024-03-23T12:15:40;10.80;99.90
33715;DHT22;20043;50.998;4.754;2024-03-23T12:18:06;10.50;99.90
33715;DHT22;20043;50.998;4.754;2024-03-23T12:20:32;10.30;99.90
33715;DHT22;20043;50.998;4.754;2024-03-23T12:23:07;10.20;99.90
33715;DHT22;20043;50.998;4.754;2024-03-23T12:25:33;10.20;99.90
33715;DHT22;20043;50.998;4.754;2024-03-23T12:27:59;10.50;99.90
33715;DHT22;20043;50.998;4.754;2024-03-23T12:30:25;10.90;99.90
33715;DHT22;20043;50.998;4.754;2024-03-23T12:32:50;11.10;99.90
33715;DHT22;20043;50.998;4.754;2024-03-23T12:35:15;11.40;99.90
33715;DHT22;20043;50.998;4.754;2024-03-23T12:37:41;11.30;99.90
33715;DHT22;20043;50.998;4.754;2024-03-23T12:40:07;11.30;99.90
33715;DHT22;20043;50.998;4.754;2024-03-23T12:42:42;11.60;99.90
33715;DHT22;20043;50.998;4.754;2024-03-23T12:45:08;11.60;99.90
33715;DHT22;20043;50.998;4.754;2024-03-23T12:47:34;11.70;99.90
33715;DHT22;20043;50.998;4.754;2024-03-23T12:50:00;11.60;99.90
33715;DHT22;20043;50.998;4.754;2024-03-23T12:52:32;11.70;99.90
33715;DHT22;20043;50.998;4.754;2024-03-23T12:55:04;11.90;99.90
33715;DHT22;20043;50.998;4.754;2024-03-23T12:57:32;12.10;99.90
33715;DHT22;20043;50.998;4.754;2024-03-23T12:59:58;12.20;99.90
33715;DHT22;20043;50.998;4.754;2024-03-23T13:02:24;12.10;99.90
33715;DHT22;20043;50.998;4.754;2024-03-23T13:04:50;12.10;99.90
33715;DHT22;20043;50.998;4.754;2024-03-23T13:07:19;12.10;99.90
33715;DHT22;20043;50.998;4.754;2024-03-23T13:09:45;12.00;99.90
33715;DHT22;20043;50.998;4.754;2024-03-23T13:12:11;12.10;99.90
33715;DHT22;20043;50.998;4.754;2024-03-23T13:14:39;12.10;99.90
33715;DHT22;20043;50.998;4.754;2024-03-23T13:17:05;12.10;99.90
33715;DHT22;20043;50.998;4.754;2024-03-23T13:19:31;12.00;99.90
33715;DHT22;20043;50.998;4.754;2024-03-23T13:21:57;12.00;99.90
33715;DHT22;20043;50.998;4.754;2024-03-23T13:24:29;11.90;99.90
33715;DHT22;20043;50.998;4.754;2024-03-23T13:26:55;11.90;99.90
33715;DHT22;20043;50.998;4.754;2024-03-23T13:29:21;12.00;99.90
33715;DHT22;20043;50.998;4.754;2024-03-23T13:31:47;12.20;99.90
33715;DHT22;20043;50.998;4.754;2024-03-23T13:34:13;12.10;99.90
33715;DHT22;20043;50.998;4.754;2024-03-23T13:36:42;11.70;99.90
33715;DHT22;20043;50.998;4.754;2024-03-23T13:39:08;11.50;99.90
33715;DHT22;20043;50.998;4.754;2024-03-23T13:41:40;11.40;99.90
33715;DHT22;20043;50.998;4.754;2024-03-23T13:44:06;11.30;99.90
33715;DHT22;20043;50.998;4.754;2024-03-23T13:46:31;11.20;99.90
33715;DHT22;20043;50.998;4.754;2024-03-23T13:48:57;11.20;99.90
33715;DHT22;20043;50.998;4.754;2024-03-23T13:51:23;11.40;99.90
33715;DHT22;20043;50.998;4.754;2024-03-23T13:53:49;11.70;99.90
33715;DHT22;20043;50.998;4.754;2024-03-23T13:56:15;11.70;99.90
33715;DHT22;20043;50.998;4.754;2024-03-23T13:58:40;11.90;99.90
33715;DHT22;20043;50.998;4.754;2024-03-23T14:01:11;12.10;99.90
33715;DHT22;20043;50.998;4.754;2024-03-23T14:03:36;12.50;99.90
33715;DHT22;20043;50.998;4.754;2024-03-23T14:06:02;12.60;99.90
33715;DHT22;20043;50.998;4.754;2024-03-23T14:08:28;12.60;99.90
33715;DHT22;20043;50.998;4.754;2024-03-23T14:10:54;12.60;99.90
33715;DHT22;20043;50.998;4.754;2024-03-23T14:13:19;12.10;99.90
33715;DHT22;20043;50.998;4.754;2024-03-23T14:15:45;11.80;99.90
33715;DHT22;20043;50.998;4.754;2024-03-23T14:18:10;11.70;99.90
33715;DHT22;20043;50.998;4.754;2024-03-23T14:20:36;11.50;99.90
33715;DHT22;20043;50.998;4.754;2024-03-23T14:23:01;11.40;99.90
33715;DHT22;20043;50.998;4.754;2024-03-23T14:25:28;11.40;99.90
33715;DHT22;20043;50.998;4.754;2024-03-23T14:27:54;11.50;99.90
33715;DHT22;20043;50.998;4.754;2024-03-23T14:30:20;11.40;99.90
33715;DHT22;20043;50.998;4.754;2024-03-23T14:32:45;11.30;99.90
33715;DHT22;20043;50.998;4.754;2024-03-23T14:35:11;11.30;99.90
33715;DHT22;20043;50.998;4.754;2024-03-23T14:37:37;11.40;99.90
33715;DHT22;20043;50.998;4.754;2024-03-23T14:40:03;11.50;99.90
33715;DHT22;20043;50.998;4.754;2024-03-23T14:42:29;11.50;99.90
33715;DHT22;20043;50.998;4.754;2024-03-23T14:44:54;11.50;99.90
33715;DHT22;20043;50.998;4.754;2024-03-23T14:47:20;11.40;99.90
33715;DHT22;20043;50.998;4.754;2024-03-23T14:49:46;11.30;99.90
33715;DHT22;20043;50.998;4.754;2024-03-23T14:52:13;11.40;99.90
33715;DHT22;20043;50.998;4.754;2024-03-23T14:54:38;11.40;99.90
33715;DHT22;20043;50.998;4.754;2024-03-23T14:57:04;11.50;99.90
33715;DHT22;20043;50.998;4.754;2024-03-23T14:59:29;11.70;99.90
33715;DHT22;20043;50.998;4.754;2024-03-23T15:01:55;11.70;99.90
33715;DHT22;20043;50.998;4.754;2024-03-23T15:04:21;11.60;99.90
33715;DHT22;20043;50.998;4.754;2024-03-23T15:06:46;11.70;99.90
33715;DHT22;20043;50.998;4.754;2024-03-23T15:09:14;11.90;99.90
33715;DHT22;20043;50.998;4.754;2024-03-23T15:11:40;11.80;99.90
33715;DHT22;20043;50.998;4.754;2024-03-23T15:14:06;11.80;99.90
33715;DHT22;20043;50.998;4.754;2024-03-23T15:16:32;11.90;99.90
33715;DHT22;20043;50.998;4.754;2024-03-23T15:18:58;12.00;99.90
33715;DHT22;20043;50.998;4.754;2024-03-23T15:21:23;12.00;99.90
33715;DHT22;20043;50.998;4.754;2024-03-23T15:23:49;11.70;99.90
33715;DHT22;20043;50.998;4.754;2024-03-23T15:26:14;11.70;99.90
33715;DHT22;20043;50.998;4.754;2024-03-23T15:28:41;11.60;99.90
33715;DHT22;20043;50.998;4.754;2024-03-23T15:31:08;11.50;99.90
33715;DHT22;20043;50.998;4.754;2024-03-23T15:33:37;11.50;99.90
33715;DHT22;20043;50.998;4.754;2024-03-23T15:36:03;11.40;99.90
33715;DHT22;20043;50.998;4.754;2024-03-23T15:38:28;11.40;99.90
33715;DHT22;20043;50.998;4.754;2024-03-23T15:40:57;11.30;99.90
33715;DHT22;20043;50.998;4.754;2024-03-23T15:43:23;11.10;99.90
33715;DHT22;20043;50.998;4.754;2024-03-23T15:45:54;11.30;99.90
33715;DHT22;20043;50.998;4.754;2024-03-23T15:48:20;11.40;99.90
33715;DHT22;20043;50.998;4.754;2024-03-23T15:50:56;11.50;99.90
33715;DHT22;20043;50.998;4.754;2024-03-23T15:53:22;11.40;99.90
33715;DHT22;20043;50.998;4.754;2024-03-23T15:58:19;10.40;99.90
33715;DHT22;20043;50.998;4.754;2024-03-23T16:00:46;10.20;99.90
33715;DHT22;20043;50.998;4.754;2024-03-23T16:03:18;10.20;99.90
33715;DHT22;20043;50.998;4.754;2024-03-23T16:05:49;10.40;99.90
33715;DHT22;20043;50.998;4.754;2024-03-23T16:08:15;10.50;99.90
33715;DHT22;20043;50.998;4.754;2024-03-23T16:10:40;10.70;99.90
33715;DHT22;20043;50.998;4.754;2024-03-23T16:13:06;10.70;99.90
33715;DHT22;20043;50.998;4.754;2024-03-23T16:15:31;10.90;99.90
33715;DHT22;20043;50.998;4.754;2024-03-23T16:17:57;10.90;99.90
33715;DHT22;20043;50.998;4.754;2024-03-23T16:20:22;10.90;99.90
33715;DHT22;20043;50.998;4.754;2024-03-23T16:22:48;10.70;99.90
33715;DHT22;20043;50.998;4.754;2024-03-23T16:25:13;10.70;99.90
33715;DHT22;20043;50.998;4.754;2024-03-23T16:27:39;10.70;99.90
33715;DHT22;20043;50.998;4.754;2024-03-23T16:30:05;10.70;99.90
33715;DHT22;20043;50.998;4.754;2024-03-23T16:32:30;10.80;99.90
33715;DHT22;20043;50.998;4.754;2024-03-23T16:35:00;10.80;99.90
33715;DHT22;20043;50.998;4.754;2024-03-23T16:37:25;10.80;99.90
33715;DHT22;20043;50.998;4.754;2024-03-23T16:39:51;10.90;99.90
33715;DHT22;20043;50.998;4.754;2024-03-23T16:42:16;11.00;99.90
33715;DHT22;20043;50.998;4.754;2024-03-23T16:44:42;11.00;99.90